Time;durP1;ratioP1;P1;durP2;ratioP2;P2;SDS_P1;SDS_P2;PMS_P1;PMS_P2;Temp;Humidity;BMP_temperature;BMP_pressure;BME280_temperature;BME280_humidity;BME280_pressure;Samples;Min_cycle;Max_cycle;Signal;HPM_P1;HPM_P2
2021/04/25 00:00:19;;;;;;;;;;;;;;;;;;5025707;28;803;-57
2021/04/25 00:02:44;;;;;;;;;;;;;;;;;;5025856;28;847;-58
2021/04/25 00:05:11;;;;;;;;;;;;;;;;;;5026545;28;1890;-58
2021/04/25 00:07:36;;;;;;;;;;;;;;;;;;5027301;28;889;-60
2021/04/25 00:10:02;;;;;;;;;;;;;;;;;;5026088;28;1017;-57
2021/04/25 00:12:28;;;;;;;;;;;;;;;;;;5026169;28;842;-58
2021/04/25 00:14:53;;;;;;;;;;;;;;;;;;5029108;28;873;-58
2021/04/25 00:17:19;;;;;;;;;;;;;;;;;;5026432;28;817;-57
2021/04/25 00:19:44;;;;;;;;;;;;;;;;;;5026202;28;795;-58
2021/04/25 00:22:09;;;;;;;;;;;;;;;;;;5025787;28;850;-58
2021/04/25 00:24:35;;;;;;;;;;;;;;;;;;5026368;28;1882;-58
2021/04/25 00:27:00;;;;;;;;;;;;;;;;;;5025995;28;811;-57
2021/04/25 00:29:26;;;;;;;;;;;;;;;;;;5025803;28;882;-58
2021/04/25 00:31:51;;;;;;;;;;;;;;;;;;5026169;28;859;-58
2021/04/25 00:34:16;;;;;;;;;;;;;;;;;;5025149;28;1292;-57
2021/04/25 00:36:43;;;;;;;;;;;;;;;;;;5035431;28;1065;-58
2021/04/25 00:39:08;;;;;;;;;;;;;;;;;;5027690;27;1144;-58
2021/04/25 00:41:33;;;;;;;;;;;;;;;;;;5025807;28;933;-58
2021/04/25 00:43:59;;;;;;;;;;;;;;;;;;5061468;28;1110;-58
2021/04/25 00:46:24;;;;;;;;;;;;;;;;;;5109305;28;1907;-58
2021/04/25 00:48:51;;;;;;;;;;;;;;;;;;5109035;28;924;-58
2021/04/25 00:51:20;;;;;;;;;;;;;;;;;;5107948;28;845;-58
2021/04/25 00:53:45;;;;;;;;;;;;;;;;;;5108021;28;853;-58
2021/04/25 00:56:13;;;;;;;;;;;;;;;;;;5108730;28;806;-58
2021/04/25 00:58:38;;;;;;;;;;;;;;;;;;5108780;28;845;-58
2021/04/25 01:01:04;;;;;;;;;;;;;;;;;;5109378;28;826;-57
2021/04/25 01:03:29;;;;;;;;;;;;;;;;;;5108451;27;783;-57
2021/04/25 01:05:54;;;;;;;;;;;;;;;;;;5107171;28;1889;-58
2021/04/25 01:08:20;;;;;;;;;;;;;;;;;;5107346;28;845;-58
2021/04/25 01:10:45;;;;;;;;;;;;;;;;;;5107517;27;909;-58
2021/04/25 01:13:11;;;;;;;;;;;;;;;;;;5108927;28;846;-58
2021/04/25 01:15:36;;;;;;;;;;;;;;;;;;5111907;28;790;-58
2021/04/25 01:18:02;;;;;;;;;;;;;;;;;;5109727;28;708;-58
2021/04/25 01:20:28;;;;;;;;;;;;;;;;;;5108496;27;926;-58
2021/04/25 01:22:53;;;;;;;;;;;;;;;;;;5107402;28;930;-57
2021/04/25 01:25:20;;;;;;;;;;;;;;;;;;5109082;28;1882;-58
2021/04/25 01:27:45;;;;;;;;;;;;;;;;;;5108167;28;877;-57
2021/04/25 01:30:12;;;;;;;;;;;;;;;;;;5107071;28;962;-58
2021/04/25 01:32:40;;;;;;;;;;;;;;;;;;5108997;28;1019;-58
2021/04/25 01:35:06;;;;;;;;;;;;;;;;;;5108278;28;890;-57
2021/04/25 01:37:31;;;;;;;;;;;;;;;;;;5106340;28;902;-58
2021/04/25 01:39:56;;;;;;;;;;;;;;;;;;5108134;28;830;-58
2021/04/25 01:42:22;;;;;;;;;;;;;;;;;;5108015;28;893;-58
2021/04/25 01:44:47;;;;;;;;;;;;;;;;;;5045481;28;1964;-58
2021/04/25 01:47:13;;;;;;;;;;;;;;;;;;5024098;28;894;-57
2021/04/25 01:49:38;;;;;;;;;;;;;;;;;;5023594;28;875;-57
2021/04/25 01:52:03;;;;;;;;;;;;;;;;;;5025146;28;850;-58
2021/04/25 01:54:29;;;;;;;;;;;;;;;;;;5025480;28;890;-58
2021/04/25 01:56:54;;;;;;;;;;;;;;;;;;5024691;28;835;-58
2021/04/25 01:59:20;;;;;;;;;;;;;;;;;;5024957;28;869;-58
2021/04/25 02:01:45;;;;;;;;;;;;;;;;;;5025147;28;823;-58
2021/04/25 02:04:11;;;;;;;;;;;;;;;;;;5024733;28;838;-58
2021/04/25 02:06:37;;;;;;;;;;;;;;;;;;5024522;28;1894;-58
2021/04/25 02:09:03;;;;;;;;;;;;;;;;;;5025398;28;889;-58
2021/04/25 02:11:29;;;;;;;;;;;;;;;;;;5025035;28;807;-58
2021/04/25 02:13:54;;;;;;;;;;;;;;;;;;5025123;28;846;-58
2021/04/25 02:16:19;;;;;;;;;;;;;;;;;;5025822;28;818;-58
2021/04/25 02:18:45;;;;;;;;;;;;;;;;;;5025821;28;926;-58
2021/04/25 02:21:10;;;;;;;;;;;;;;;;;;5023317;28;826;-58
2021/04/25 02:23:36;;;;;;;;;;;;;;;;;;5024444;28;846;-58
2021/04/25 02:26:01;;;;;;;;;;;;;;;;;;5024423;28;1969;-58
2021/04/25 02:28:26;;;;;;;;;;;;;;;;;;5024656;28;846;-58
2021/04/25 02:30:52;;;;;;;;;;;;;;;;;;5036005;28;1021;-58
2021/04/25 02:33:17;;;;;;;;;;;;;;;;;;5024167;28;830;-58
2021/04/25 02:35:43;;;;;;;;;;;;;;;;;;5024529;28;799;-58
2021/04/25 02:38:08;;;;;;;;;;;;;;;;;;5023982;28;814;-58
2021/04/25 02:40:35;;;;;;;;;;;;;;;;;;5024410;28;933;-58
2021/04/25 02:43:01;;;;;;;;;;;;;;;;;;5025422;28;1082;-57
2021/04/25 02:45:27;;;;;;;;;;;;;;;;;;5107713;28;2340;-58
2021/04/25 02:47:54;;;;;;;;;;;;;;;;;;5107409;28;799;-57
2021/04/25 02:50:21;;;;;;;;;;;;;;;;;;5106299;28;882;-58
2021/04/25 02:52:47;;;;;;;;;;;;;;;;;;5106985;28;849;-57
2021/04/25 02:55:13;;;;;;;;;;;;;;;;;;5107342;28;838;-58
2021/04/25 02:57:39;;;;;;;;;;;;;;;;;;5106193;28;1182;-58
2021/04/25 03:00:08;;;;;;;;;;;;;;;;;;5108044;28;782;-57
2021/04/25 03:02:33;;;;;;;;;;;;;;;;;;5107714;28;834;-58
2021/04/25 03:04:59;;;;;;;;;;;;;;;;;;5106341;28;1890;-58
2021/04/25 03:07:24;;;;;;;;;;;;;;;;;;5106439;28;881;-57
2021/04/25 03:09:50;;;;;;;;;;;;;;;;;;5107171;28;826;-58
2021/04/25 03:12:15;;;;;;;;;;;;;;;;;;5106501;28;842;-57
2021/04/25 03:14:40;;;;;;;;;;;;;;;;;;5106939;28;818;-58
2021/04/25 03:17:06;;;;;;;;;;;;;;;;;;5108375;28;798;-58
2021/04/25 03:19:31;;;;;;;;;;;;;;;;;;5108592;28;850;-58
2021/04/25 03:21:57;;;;;;;;;;;;;;;;;;5106692;28;821;-58
2021/04/25 03:24:22;;;;;;;;;;;;;;;;;;5104207;28;1301;-58
2021/04/25 03:26:48;;;;;;;;;;;;;;;;;;5105389;28;1890;-58
2021/04/25 03:29:13;;;;;;;;;;;;;;;;;;5103836;28;1178;-58
2021/04/25 03:31:38;;;;;;;;;;;;;;;;;;5104940;28;912;-59
2021/04/25 03:34:04;;;;;;;;;;;;;;;;;;5106889;28;838;-61
2021/04/25 03:36:29;;;;;;;;;;;;;;;;;;5109483;28;862;-58
2021/04/25 03:38:55;;;;;;;;;;;;;;;;;;5109162;28;945;-59
2021/04/25 03:41:20;;;;;;;;;;;;;;;;;;5108914;28;798;-58
2021/04/25 03:43:46;;;;;;;;;;;;;;;;;;5080807;28;1109;-58
2021/04/25 03:46:11;;;;;;;;;;;;;;;;;;5024129;28;1972;-58
2021/04/25 03:48:36;;;;;;;;;;;;;;;;;;5026789;28;877;-58
2021/04/25 03:51:02;;;;;;;;;;;;;;;;;;5026578;28;869;-58
2021/04/25 03:53:27;;;;;;;;;;;;;;;;;;5027020;28;933;-58
2021/04/25 03:55:52;;;;;;;;;;;;;;;;;;5013075;28;2615;-58
2021/04/25 03:58:18;;;;;;;;;;;;;;;;;;4998548;28;908;-58
2021/04/25 04:00:43;;;;;;;;;;;;;;;;;;5007010;28;858;-58
2021/04/25 04:03:09;;;;;;;;;;;;;;;;;;5006505;28;798;-59
2021/04/25 04:05:34;;;;;;;;;;;;;;;;;;5007005;28;1890;-59
2021/04/25 04:07:59;;;;;;;;;;;;;;;;;;5006395;28;916;-58
2021/04/25 04:10:25;;;;;;;;;;;;;;;;;;5007471;28;866;-58
2021/04/25 04:12:50;;;;;;;;;;;;;;;;;;5006933;28;882;-58
2021/04/25 04:15:16;;;;;;;;;;;;;;;;;;5005069;28;907;-58
2021/04/25 04:17:41;;;;;;;;;;;;;;;;;;5006295;28;842;-58
2021/04/25 04:20:07;;;;;;;;;;;;;;;;;;5009032;28;886;-59
2021/04/25 04:22:32;;;;;;;;;;;;;;;;;;5006089;28;823;-58
2021/04/25 04:24:58;;;;;;;;;;;;;;;;;;5004092;28;2643;-58
2021/04/25 04:27:23;;;;;;;;;;;;;;;;;;4998074;28;802;-58
2021/04/25 04:29:48;;;;;;;;;;;;;;;;;;5014155;28;1101;-57
2021/04/25 04:32:14;;;;;;;;;;;;;;;;;;5101734;28;1021;-58
2021/04/25 04:34:39;;;;;;;;;;;;;;;;;;5110767;28;802;-59
2021/04/25 04:37:05;;;;;;;;;;;;;;;;;;5109550;28;848;-58
2021/04/25 04:39:31;;;;;;;;;;;;;;;;;;5109529;28;831;-58
2021/04/25 04:41:56;;;;;;;;;;;;;;;;;;5109566;28;798;-58
2021/04/25 04:44:21;;;;;;;;;;;;;;;;;;5061112;28;1102;-58
2021/04/25 04:46:47;;;;;;;;;;;;;;;;;;5024565;28;1894;-58
2021/04/25 04:49:12;;;;;;;;;;;;;;;;;;5024591;28;853;-58
2021/04/25 04:51:37;;;;;;;;;;;;;;;;;;5026037;28;803;-59
2021/04/25 04:54:03;;;;;;;;;;;;;;;;;;5024824;28;828;-58
2021/04/25 04:56:28;;;;;;;;;;;;;;;;;;5025440;28;854;-58
2021/04/25 04:58:54;;;;;;;;;;;;;;;;;;5025135;28;909;-58
2021/04/25 05:01:19;;;;;;;;;;;;;;;;;;5023727;28;862;-59
2021/04/25 05:03:45;;;;;;;;;;;;;;;;;;5024332;28;807;-58
2021/04/25 05:06:10;;;;;;;;;;;;;;;;;;5024334;28;1968;-59
2021/04/25 05:08:36;;;;;;;;;;;;;;;;;;5025204;28;846;-58
2021/04/25 05:11:01;;;;;;;;;;;;;;;;;;5023650;28;802;-58
2021/04/25 05:13:26;;;;;;;;;;;;;;;;;;5021966;28;1194;-58
2021/04/25 05:15:52;;;;;;;;;;;;;;;;;;5022588;28;870;-58
2021/04/25 05:18:17;;;;;;;;;;;;;;;;;;5023131;28;866;-58
2021/04/25 05:20:43;;;;;;;;;;;;;;;;;;5024743;28;850;-58
2021/04/25 05:23:08;;;;;;;;;;;;;;;;;;5025411;28;885;-58
2021/04/25 05:25:34;;;;;;;;;;;;;;;;;;5023759;28;1909;-58
2021/04/25 05:27:59;;;;;;;;;;;;;;;;;;5024115;28;810;-58
2021/04/25 05:30:24;;;;;;;;;;;;;;;;;;5024011;28;886;-58
2021/04/25 05:32:50;;;;;;;;;;;;;;;;;;5024149;28;683;-58
2021/04/25 05:35:15;;;;;;;;;;;;;;;;;;5023943;28;842;-59
2021/04/25 05:37:41;;;;;;;;;;;;;;;;;;5024541;28;851;-60
2021/04/25 05:40:08;;;;;;;;;;;;;;;;;;5024321;28;995;-58
2021/04/25 05:42:34;;;;;;;;;;;;;;;;;;5022359;28;754;-58
2021/04/25 05:44:59;;;;;;;;;;;;;;;;;;5093517;28;1984;-59
2021/04/25 05:47:25;;;;;;;;;;;;;;;;;;5107151;28;928;-58
2021/04/25 05:49:50;;;;;;;;;;;;;;;;;;5107319;28;794;-58
2021/04/25 05:52:15;;;;;;;;;;;;;;;;;;5107074;28;635;-58
2021/04/25 05:54:41;;;;;;;;;;;;;;;;;;5106071;28;827;-59
2021/04/25 05:57:08;;;;;;;;;;;;;;;;;;5107041;28;838;-58
2021/04/25 05:59:34;;;;;;;;;;;;;;;;;;5106600;28;783;-58
2021/04/25 06:01:59;;;;;;;;;;;;;;;;;;5106417;27;900;-60
2021/04/25 06:04:25;;;;;;;;;;;;;;;;;;5036003;28;1733;-58
2021/04/25 06:06:50;;;;;;;;;;;;;;;;;;5004716;28;1893;-58
2021/04/25 06:09:15;;;;;;;;;;;;;;;;;;5004057;28;1782;-58
2021/04/25 06:11:41;;;;;;;;;;;;;;;;;;5004874;28;1719;-59
2021/04/25 06:14:06;;;;;;;;;;;;;;;;;;5003867;28;870;-58
2021/04/25 06:16:32;;;;;;;;;;;;;;;;;;5004838;28;818;-58
2021/04/25 06:18:58;;;;;;;;;;;;;;;;;;5004403;28;807;-59
2021/04/25 06:21:25;;;;;;;;;;;;;;;;;;5003887;28;1357;-58
2021/04/25 06:23:50;;;;;;;;;;;;;;;;;;5003857;28;1155;-58
2021/04/25 06:26:16;;;;;;;;;;;;;;;;;;5003224;28;1961;-58
2021/04/25 06:28:41;;;;;;;;;;;;;;;;;;5003181;28;1228;-62
2021/04/25 06:31:06;;;;;;;;;;;;;;;;;;5012561;28;1304;-58
2021/04/25 06:33:32;;;;;;;;;;;;;;;;;;5004082;28;1283;-58
2021/04/25 06:35:57;;;;;;;;;;;;;;;;;;5003482;28;1153;-58
2021/04/25 06:38:23;;;;;;;;;;;;;;;;;;5004329;28;1627;-58
2021/04/25 06:40:49;;;;;;;;;;;;;;;;;;5004420;28;944;-58
2021/04/25 06:43:15;;;;;;;;;;;;;;;;;;5007002;28;1098;-58
2021/04/25 06:45:40;;;;;;;;;;;;;;;;;;5024931;28;1898;-58
2021/04/25 06:48:06;;;;;;;;;;;;;;;;;;5024216;28;944;-58
2021/04/25 06:50:31;;;;;;;;;;;;;;;;;;5023611;28;909;-58
2021/04/25 06:52:56;;;;;;;;;;;;;;;;;;5024619;28;823;-58
2021/04/25 06:55:23;;;;;;;;;;;;;;;;;;5023450;28;886;-58
2021/04/25 06:57:49;;;;;;;;;;;;;;;;;;5024146;28;831;-58
2021/04/25 07:00:15;;;;;;;;;;;;;;;;;;5023915;28;822;-59
2021/04/25 07:02:41;;;;;;;;;;;;;;;;;;5015909;28;1317;-60
2021/04/25 07:05:07;;;;;;;;;;;;;;;;;;5003778;28;1975;-59
2021/04/25 07:07:33;;;;;;;;;;;;;;;;;;5003399;28;1202;-58
2021/04/25 07:09:58;;;;;;;;;;;;;;;;;;5006921;28;1210;-58
2021/04/25 07:12:24;;;;;;;;;;;;;;;;;;5007091;28;1186;-60
2021/04/25 07:14:50;;;;;;;;;;;;;;;;;;5007209;28;1171;-59
2021/04/25 07:17:15;;;;;;;;;;;;;;;;;;5007082;28;874;-58
2021/04/25 07:19:41;;;;;;;;;;;;;;;;;;5007212;28;1230;-60
2021/04/25 07:22:07;;;;;;;;;;;;;;;;;;5008254;28;1198;-58
2021/04/25 07:24:32;;;;;;;;;;;;;;;;;;5007149;28;1225;-58
2021/04/25 07:26:57;;;;;;;;;;;;;;;;;;5006960;28;1886;-58
2021/04/25 07:29:23;;;;;;;;;;;;;;;;;;5006936;28;866;-58
2021/04/25 07:31:49;;;;;;;;;;;;;;;;;;5006544;28;1072;-58
2021/04/25 07:34:14;;;;;;;;;;;;;;;;;;5006612;28;814;-58
2021/04/25 07:36:40;;;;;;;;;;;;;;;;;;5013325;28;1177;-59
2021/04/25 07:39:06;;;;;;;;;;;;;;;;;;4987103;28;894;-59
2021/04/25 07:41:32;;;;;;;;;;;;;;;;;;5049445;28;1222;-58
2021/04/25 07:43:57;;;;;;;;;;;;;;;;;;5055248;28;1275;-58
2021/04/25 07:46:23;;;;;;;;;;;;;;;;;;5110218;28;1993;-59
2021/04/25 07:48:48;;;;;;;;;;;;;;;;;;5111015;27;701;-58
2021/04/25 07:51:14;;;;;;;;;;;;;;;;;;5110565;28;826;-58
2021/04/25 07:53:39;;;;;;;;;;;;;;;;;;5110903;28;834;-58
2021/04/25 07:56:05;;;;;;;;;;;;;;;;;;5110984;28;818;-58
2021/04/25 07:58:30;;;;;;;;;;;;;;;;;;5110444;28;881;-59
2021/04/25 08:00:56;;;;;;;;;;;;;;;;;;5108209;28;1158;-59
2021/04/25 08:03:21;;;;;;;;;;;;;;;;;;5006599;28;852;-58
2021/04/25 08:05:46;;;;;;;;;;;;;;;;;;5006405;28;1898;-58
2021/04/25 08:08:12;;;;;;;;;;;;;;;;;;5005221;28;1080;-60
2021/04/25 08:10:37;;;;;;;;;;;;;;;;;;5007321;28;1341;-59
2021/04/25 08:13:03;;;;;;;;;;;;;;;;;;5007243;28;823;-58
2021/04/25 08:15:28;;;;;;;;;;;;;;;;;;5006646;28;818;-58
2021/04/25 08:17:57;;;;;;;;;;;;;;;;;;5005474;28;867;-60
2021/04/25 08:20:25;;;;;;;;;;;;;;;;;;5004257;28;1446;-58
2021/04/25 08:22:51;;;;;;;;;;;;;;;;;;5006644;28;815;-58
2021/04/25 08:25:16;;;;;;;;;;;;;;;;;;5006445;28;1914;-58
2021/04/25 08:27:42;;;;;;;;;;;;;;;;;;5006734;28;811;-60
2021/04/25 08:30:08;;;;;;;;;;;;;;;;;;5007525;28;830;-59
2021/04/25 08:32:34;;;;;;;;;;;;;;;;;;5006325;28;952;-58
2021/04/25 08:34:59;;;;;;;;;;;;;;;;;;5006135;28;822;-59
2021/04/25 08:37:25;;;;;;;;;;;;;;;;;;5081965;28;1147;-59
2021/04/25 08:39:50;;;;;;;;;;;;;;;;;;5109572;28;886;-59
2021/04/25 08:42:16;;;;;;;;;;;;;;;;;;5109730;28;782;-59
2021/04/25 08:44:44;;;;;;;;;;;;;;;;;;5050166;28;1105;-58
2021/04/25 08:47:12;;;;;;;;;;;;;;;;;;5026681;28;1894;-58
2021/04/25 08:49:37;;;;;;;;;;;;;;;;;;5017383;28;1335;-58
2021/04/25 08:52:03;;;;;;;;;;;;;;;;;;5005935;28;811;-59
2021/04/25 08:54:28;;;;;;;;;;;;;;;;;;5006269;28;850;-59
2021/04/25 08:56:55;;;;;;;;;;;;;;;;;;5006379;28;807;-58
2021/04/25 08:59:21;;;;;;;;;;;;;;;;;;5005724;28;838;-59
2021/04/25 09:01:46;;;;;;;;;;;;;;;;;;5005794;28;874;-62
2021/04/25 09:04:12;;;;;;;;;;;;;;;;;;5005006;28;1717;-59
2021/04/25 09:06:56;;;;;;;;;;;;;;;;;;5005689;28;1961;-58
2021/04/25 09:09:21;;;;;;;;;;;;;;;;;;5005218;28;1290;-59
2021/04/25 09:11:49;;;;;;;;;;;;;;;;;;5005919;28;926;-58
2021/04/25 09:14:15;;;;;;;;;;;;;;;;;;5005420;28;1553;-59
2021/04/25 09:16:43;;;;;;;;;;;;;;;;;;5005472;28;807;-59
2021/04/25 09:19:08;;;;;;;;;;;;;;;;;;5004951;28;1414;-59
2021/04/25 09:21:34;;;;;;;;;;;;;;;;;;5004836;28;799;-58
2021/04/25 09:24:18;;;;;;;;;;;;;;;;;;5004908;28;863;-59
2021/04/25 09:26:43;;;;;;;;;;;;;;;;;;5004764;28;1886;-59
2021/04/25 09:29:09;;;;;;;;;;;;;;;;;;5005694;28;861;-58
2021/04/25 09:31:39;;;;;;;;;;;;;;;;;;5003526;28;850;-58
2021/04/25 09:34:04;;;;;;;;;;;;;;;;;;5000694;28;1132;-59
2021/04/25 09:36:29;;;;;;;;;;;;;;;;;;5004439;28;1171;-58
2021/04/25 09:39:07;;;;;;;;;;;;;;;;;;5003540;28;1266;-58
2021/04/25 09:41:33;;;;;;;;;;;;;;;;;;5003401;28;1205;-61
2021/04/25 09:44:00;;;;;;;;;;;;;;;;;;5003933;28;1197;-58
2021/04/25 09:46:45;;;;;;;;;;;;;;;;;;5002947;28;1967;-58
2021/04/25 09:49:10;;;;;;;;;;;;;;;;;;5004301;28;1146;-59
2021/04/25 09:51:42;;;;;;;;;;;;;;;;;;5003506;28;1296;-59
2021/04/25 09:54:07;;;;;;;;;;;;;;;;;;5004763;28;1264;-58
2021/04/25 09:56:41;;;;;;;;;;;;;;;;;;5004113;28;1162;-58
2021/04/25 09:59:08;;;;;;;;;;;;;;;;;;5002757;27;1071;-59
2021/04/25 10:01:35;;;;;;;;;;;;;;;;;;5001324;28;1232;-59
2021/04/25 10:04:01;;;;;;;;;;;;;;;;;;5004160;28;811;-59
2021/04/25 10:06:29;;;;;;;;;;;;;;;;;;5003894;28;2020;-58
2021/04/25 10:08:55;;;;;;;;;;;;;;;;;;5002583;28;1198;-58
2021/04/25 10:11:21;;;;;;;;;;;;;;;;;;5003664;28;858;-58
2021/04/25 10:13:51;;;;;;;;;;;;;;;;;;5003948;28;875;-58
2021/04/25 10:16:17;;;;;;;;;;;;;;;;;;5003473;28;854;-58
2021/04/25 10:18:43;;;;;;;;;;;;;;;;;;5003744;28;1375;-59
2021/04/25 10:21:09;;;;;;;;;;;;;;;;;;5004501;28;1163;-59
2021/04/25 10:23:35;;;;;;;;;;;;;;;;;;5003053;28;1242;-59
2021/04/25 10:26:01;;;;;;;;;;;;;;;;;;5002741;28;1890;-59
2021/04/25 10:28:38;;;;;;;;;;;;;;;;;;5002083;28;1099;-59
2021/04/25 10:31:06;;;;;;;;;;;;;;;;;;5002431;28;1147;-59
2021/04/25 10:33:54;;;;;;;;;;;;;;;;;;5032145;28;1174;-59
2021/04/25 10:36:21;;;;;;;;;;;;;;;;;;5097104;28;1201;-58
2021/04/25 10:38:46;;;;;;;;;;;;;;;;;;5106238;28;842;-59
2021/04/25 10:41:23;;;;;;;;;;;;;;;;;;5106965;28;997;-58
2021/04/25 10:43:58;;;;;;;;;;;;;;;;;;5051891;28;1228;-59
2021/04/25 10:46:24;;;;;;;;;;;;;;;;;;5021923;27;1898;-58
2021/04/25 10:48:50;;;;;;;;;;;;;;;;;;5018467;28;1269;-60
2021/04/25 10:51:17;;;;;;;;;;;;;;;;;;5002418;28;1343;-57
2021/04/25 10:53:44;;;;;;;;;;;;;;;;;;5004218;28;677;-58
2021/04/25 10:56:16;;;;;;;;;;;;;;;;;;5003717;28;1221;-58
2021/04/25 10:58:42;;;;;;;;;;;;;;;;;;5003740;28;1450;-58
2021/04/25 11:01:08;;;;;;;;;;;;;;;;;;5003136;28;951;-58
2021/04/25 11:03:35;;;;;;;;;;;;;;;;;;5003144;28;882;-58
2021/04/25 11:06:01;;;;;;;;;;;;;;;;;;5001600;28;1996;-58
2021/04/25 11:08:29;;;;;;;;;;;;;;;;;;5002560;28;847;-58
2021/04/25 11:10:56;;;;;;;;;;;;;;;;;;5002813;28;806;-58
2021/04/25 11:13:42;;;;;;;;;;;;;;;;;;5001608;28;1099;-58
2021/04/25 11:16:10;;;;;;;;;;;;;;;;;;4984743;28;909;-58
2021/04/25 11:18:45;;;;;;;;;;;;;;;;;;4983489;28;865;-58
2021/04/25 11:21:26;;;;;;;;;;;;;;;;;;4984351;28;889;-59
2021/04/25 11:23:52;;;;;;;;;;;;;;;;;;4993697;28;1033;-58
2021/04/25 11:26:41;;;;;;;;;;;;;;;;;;5002821;28;1894;-58
2021/04/25 11:29:07;;;;;;;;;;;;;;;;;;5010098;28;1048;-58
2021/04/25 11:34:25;;;;;;;;;;;;;;;;;;5003994;28;729;-58
2021/04/25 11:36:58;;;;;;;;;;;;;;;;;;5002548;28;834;-58
2021/04/25 11:39:27;;;;;;;;;;;;;;;;;;5001785;28;922;-59
2021/04/25 11:41:53;;;;;;;;;;;;;;;;;;5002958;28;827;-58
2021/04/25 11:44:24;;;;;;;;;;;;;;;;;;5012089;28;1198;-58
2021/04/25 11:46:50;;;;;;;;;;;;;;;;;;5021432;28;1956;-58
2021/04/25 11:49:15;;;;;;;;;;;;;;;;;;5022550;28;941;-58
2021/04/25 11:51:40;;;;;;;;;;;;;;;;;;5022523;28;1249;-58
2021/04/25 11:54:19;;;;;;;;;;;;;;;;;;5022812;28;901;-58
2021/04/25 11:56:44;;;;;;;;;;;;;;;;;;5025688;28;854;-59
2021/04/25 11:59:11;;;;;;;;;;;;;;;;;;5026412;28;855;-58
2021/04/25 12:01:37;;;;;;;;;;;;;;;;;;5024406;28;1213;-58
2021/04/25 12:04:02;;;;;;;;;;;;;;;;;;5024903;28;1186;-58
2021/04/25 12:06:43;;;;;;;;;;;;;;;;;;5005439;28;1969;-59
2021/04/25 12:09:08;;;;;;;;;;;;;;;;;;5001209;28;1107;-59
2021/04/25 12:11:33;;;;;;;;;;;;;;;;;;5005745;28;850;-58
2021/04/25 12:13:59;;;;;;;;;;;;;;;;;;5006111;28;913;-58
2021/04/25 12:16:24;;;;;;;;;;;;;;;;;;5004544;28;900;-59
2021/04/25 12:18:51;;;;;;;;;;;;;;;;;;5005916;28;834;-58
2021/04/25 12:21:21;;;;;;;;;;;;;;;;;;5005815;28;823;-60
2021/04/25 12:23:48;;;;;;;;;;;;;;;;;;5004266;28;1506;-58
2021/04/25 12:26:15;;;;;;;;;;;;;;;;;;5006247;28;1967;-58
2021/04/25 12:28:42;;;;;;;;;;;;;;;;;;5006532;28;771;-58
2021/04/25 12:31:12;;;;;;;;;;;;;;;;;;5005732;28;834;-59
2021/04/25 12:33:39;;;;;;;;;;;;;;;;;;5005849;28;854;-58
2021/04/25 12:36:05;;;;;;;;;;;;;;;;;;5005554;28;870;-59
2021/04/25 12:38:31;;;;;;;;;;;;;;;;;;5005471;28;783;-58
2021/04/25 12:41:10;;;;;;;;;;;;;;;;;;5010440;28;1065;-58
2021/04/25 12:43:39;;;;;;;;;;;;;;;;;;5044973;28;1117;-58
2021/04/25 12:46:31;;;;;;;;;;;;;;;;;;5108674;28;1882;-59
2021/04/25 12:48:59;;;;;;;;;;;;;;;;;;5106398;27;1189;-58
2021/04/25 12:51:25;;;;;;;;;;;;;;;;;;5108606;28;841;-59
2021/04/25 12:53:50;;;;;;;;;;;;;;;;;;5108700;28;786;-58
2021/04/25 12:56:24;;;;;;;;;;;;;;;;;;5108558;27;837;-58
2021/04/25 12:58:59;;;;;;;;;;;;;;;;;;5108864;28;878;-58
2021/04/25 13:01:25;;;;;;;;;;;;;;;;;;5108396;27;830;-58
2021/04/25 13:03:50;;;;;;;;;;;;;;;;;;5108692;28;850;-58
2021/04/25 13:06:26;;;;;;;;;;;;;;;;;;5107884;27;1971;-58
2021/04/25 13:08:51;;;;;;;;;;;;;;;;;;5108436;28;843;-59
2021/04/25 13:11:17;;;;;;;;;;;;;;;;;;5107001;28;1209;-59
2021/04/25 13:13:42;;;;;;;;;;;;;;;;;;5109419;28;861;-59
2021/04/25 13:16:12;;;;;;;;;;;;;;;;;;5108313;28;892;-59
2021/04/25 13:18:37;;;;;;;;;;;;;;;;;;5108591;28;798;-59
2021/04/25 13:21:04;;;;;;;;;;;;;;;;;;5108469;28;869;-58
2021/04/25 13:23:31;;;;;;;;;;;;;;;;;;5108473;28;850;-58
2021/04/25 13:25:59;;;;;;;;;;;;;;;;;;5108164;28;1893;-58
2021/04/25 13:28:29;;;;;;;;;;;;;;;;;;5108072;28;837;-59
2021/04/25 13:30:56;;;;;;;;;;;;;;;;;;5108193;28;826;-58
2021/04/25 13:33:22;;;;;;;;;;;;;;;;;;5108100;28;870;-58
2021/04/25 13:35:48;;;;;;;;;;;;;;;;;;5108139;28;862;-58
2021/04/25 13:38:16;;;;;;;;;;;;;;;;;;5108901;28;873;-58
2021/04/25 13:40:43;;;;;;;;;;;;;;;;;;5108690;28;908;-58
2021/04/25 13:43:11;;;;;;;;;;;;;;;;;;5100443;28;1148;-58
2021/04/25 13:45:36;;;;;;;;;;;;;;;;;;5024650;28;1898;-58
2021/04/25 13:48:03;;;;;;;;;;;;;;;;;;5022873;28;1478;-58
2021/04/25 13:50:28;;;;;;;;;;;;;;;;;;5024321;28;929;-58
2021/04/25 13:52:53;;;;;;;;;;;;;;;;;;5023858;28;861;-58
2021/04/25 13:55:19;;;;;;;;;;;;;;;;;;5022219;28;1690;-58
2021/04/25 13:57:46;;;;;;;;;;;;;;;;;;5000598;28;830;-59
2021/04/25 14:00:13;;;;;;;;;;;;;;;;;;4985604;28;710;-58
2021/04/25 14:02:39;;;;;;;;;;;;;;;;;;4983781;28;862;-58
2021/04/25 14:05:05;;;;;;;;;;;;;;;;;;4985009;28;1993;-58
2021/04/25 14:07:31;;;;;;;;;;;;;;;;;;4984882;28;894;-58
2021/04/25 14:09:56;;;;;;;;;;;;;;;;;;4984705;28;863;-58
2021/04/25 14:12:22;;;;;;;;;;;;;;;;;;4984305;28;898;-58
2021/04/25 14:14:47;;;;;;;;;;;;;;;;;;4984508;28;1083;-58
2021/04/25 14:17:13;;;;;;;;;;;;;;;;;;4984896;28;874;-58
2021/04/25 14:19:38;;;;;;;;;;;;;;;;;;4982687;28;1218;-57
2021/04/25 14:22:04;;;;;;;;;;;;;;;;;;4984032;28;808;-58
2021/04/25 14:24:30;;;;;;;;;;;;;;;;;;4984441;28;827;-59
2021/04/25 14:26:55;;;;;;;;;;;;;;;;;;4984680;28;1918;-58
2021/04/25 14:29:20;;;;;;;;;;;;;;;;;;4984486;28;811;-58
2021/04/25 14:31:46;;;;;;;;;;;;;;;;;;4984385;28;867;-58
2021/04/25 14:34:12;;;;;;;;;;;;;;;;;;4985084;28;858;-59
2021/04/25 14:36:37;;;;;;;;;;;;;;;;;;4984070;28;930;-58
2021/04/25 14:39:04;;;;;;;;;;;;;;;;;;4984046;28;882;-58
2021/04/25 14:41:31;;;;;;;;;;;;;;;;;;4984615;28;1419;-58
2021/04/25 14:43:56;;;;;;;;;;;;;;;;;;5004285;28;1406;-59
2021/04/25 14:46:22;;;;;;;;;;;;;;;;;;5003479;28;1902;-59
2021/04/25 14:48:48;;;;;;;;;;;;;;;;;;4989412;28;834;-58
2021/04/25 14:51:13;;;;;;;;;;;;;;;;;;5049721;28;1229;-59
2021/04/25 14:53:39;;;;;;;;;;;;;;;;;;5106480;28;826;-59
2021/04/25 14:56:05;;;;;;;;;;;;;;;;;;5106336;28;802;-58
2021/04/25 14:58:31;;;;;;;;;;;;;;;;;;5106241;28;818;-59
2021/04/25 15:00:56;;;;;;;;;;;;;;;;;;5104723;28;1280;-58
2021/04/25 15:03:21;;;;;;;;;;;;;;;;;;5106184;28;817;-59
2021/04/25 15:05:47;;;;;;;;;;;;;;;;;;5105828;28;1890;-58
2021/04/25 15:08:12;;;;;;;;;;;;;;;;;;5106909;28;818;-59
2021/04/25 15:10:38;;;;;;;;;;;;;;;;;;5106320;28;830;-59
2021/04/25 15:13:04;;;;;;;;;;;;;;;;;;5105523;28;862;-59
2021/04/25 15:15:30;;;;;;;;;;;;;;;;;;5003089;28;862;-59
2021/04/25 15:17:56;;;;;;;;;;;;;;;;;;5003307;28;881;-58
2021/04/25 15:20:22;;;;;;;;;;;;;;;;;;5002895;28;878;-58
2021/04/25 15:22:48;;;;;;;;;;;;;;;;;;5002398;28;2559;-58
2021/04/25 15:25:13;;;;;;;;;;;;;;;;;;4995346;28;1894;-59
2021/04/25 15:27:39;;;;;;;;;;;;;;;;;;5003160;28;898;-59
2021/04/25 15:30:05;;;;;;;;;;;;;;;;;;5003799;28;810;-58
2021/04/25 15:32:31;;;;;;;;;;;;;;;;;;5004698;28;930;-59
2021/04/25 15:34:56;;;;;;;;;;;;;;;;;;5006485;28;898;-60
2021/04/25 15:37:23;;;;;;;;;;;;;;;;;;5006189;28;870;-58
2021/04/25 15:39:49;;;;;;;;;;;;;;;;;;5005832;28;914;-58
2021/04/25 15:42:16;;;;;;;;;;;;;;;;;;5007122;28;1018;-59
2021/04/25 15:44:41;;;;;;;;;;;;;;;;;;5021094;28;1101;-58
2021/04/25 15:47:08;;;;;;;;;;;;;;;;;;5025918;28;1902;-58
2021/04/25 15:49:34;;;;;;;;;;;;;;;;;;5024562;28;791;-58
2021/04/25 15:52:00;;;;;;;;;;;;;;;;;;5025564;28;838;-58
2021/04/25 15:54:25;;;;;;;;;;;;;;;;;;5025896;28;818;-58
2021/04/25 15:56:50;;;;;;;;;;;;;;;;;;5009236;28;2646;-58
2021/04/25 15:59:16;;;;;;;;;;;;;;;;;;5001368;28;894;-62
2021/04/25 16:01:42;;;;;;;;;;;;;;;;;;5006376;28;1273;-59
2021/04/25 16:04:08;;;;;;;;;;;;;;;;;;5004504;28;1104;-58
2021/04/25 16:06:33;;;;;;;;;;;;;;;;;;5005940;28;1890;-58
2021/04/25 16:08:58;;;;;;;;;;;;;;;;;;5005993;28;624;-58
2021/04/25 16:11:24;;;;;;;;;;;;;;;;;;5004165;28;899;-59
2021/04/25 16:13:50;;;;;;;;;;;;;;;;;;4995976;28;1629;-60
2021/04/25 16:16:15;;;;;;;;;;;;;;;;;;4990703;28;861;-59
2021/04/25 16:18:41;;;;;;;;;;;;;;;;;;5000340;28;1250;-58
2021/04/25 16:21:06;;;;;;;;;;;;;;;;;;5005499;28;1067;-59
2021/04/25 16:23:32;;;;;;;;;;;;;;;;;;5005992;28;866;-58
2021/04/25 16:25:57;;;;;;;;;;;;;;;;;;5005351;28;1894;-58
2021/04/25 16:28:23;;;;;;;;;;;;;;;;;;5005072;28;1214;-58
2021/04/25 16:30:50;;;;;;;;;;;;;;;;;;5004843;28;1225;-59
2021/04/25 16:33:15;;;;;;;;;;;;;;;;;;5005772;28;1179;-59
2021/04/25 16:35:40;;;;;;;;;;;;;;;;;;5003295;28;1690;-59
2021/04/25 16:38:06;;;;;;;;;;;;;;;;;;5005147;28;1951;-58
2021/04/25 16:40:32;;;;;;;;;;;;;;;;;;5004653;28;1631;-59
2021/04/25 16:42:58;;;;;;;;;;;;;;;;;;5005135;28;979;-58
2021/04/25 16:45:23;;;;;;;;;;;;;;;;;;5012575;28;2013;-60
2021/04/25 16:47:50;;;;;;;;;;;;;;;;;;5004874;28;1162;-61
2021/04/25 16:50:15;;;;;;;;;;;;;;;;;;5005796;28;885;-60
2021/04/25 16:52:41;;;;;;;;;;;;;;;;;;5005129;28;1667;-59
2021/04/25 16:55:10;;;;;;;;;;;;;;;;;;5004459;28;1218;-59
2021/04/25 16:57:36;;;;;;;;;;;;;;;;;;5003511;28;930;-59
2021/04/25 17:00:03;;;;;;;;;;;;;;;;;;5004720;28;838;-59
2021/04/25 17:02:29;;;;;;;;;;;;;;;;;;5083324;28;1018;-59
2021/04/25 17:04:54;;;;;;;;;;;;;;;;;;5107660;28;884;-60
2021/04/25 17:07:21;;;;;;;;;;;;;;;;;;5059578;28;2277;-59
2021/04/25 17:09:47;;;;;;;;;;;;;;;;;;5013131;28;1532;-58